Time;durP1;ratioP1;P1;durP2;ratioP2;P2;SDS_P1;SDS_P2;PMS_P1;PMS_P2;Temp;Humidity;BMP_temperature;BMP_pressure;BME280_temperature;BME280_humidity;BME280_pressure;Samples;Min_cycle;Max_cycle;Signal;HPM_P1;HPM_P2
2022/09/13 00:01:17;;;;;;;6.13;3.53;;;17.60;99.90;;;;;;4998739;28;20503;-77
2022/09/13 00:03:43;;;;;;;5.03;3.80;;;17.60;99.90;;;;;;5026223;28;20176;-77
2022/09/13 00:06:14;;;;;;;6.80;3.47;;;17.60;99.90;;;;;;5029940;28;20045;-77
2022/09/13 00:08:41;;;;;;;5.03;3.70;;;17.60;99.90;;;;;;5028026;28;20447;-79
2022/09/13 00:11:13;;;;;;;5.20;3.60;;;17.60;99.90;;;;;;5027605;28;20076;-76
2022/09/13 00:13:38;;;;;;;6.85;3.58;;;17.60;99.90;;;;;;5011615;28;20036;-78
2022/09/13 00:16:13;;;;;;;4.10;3.70;;;17.60;99.90;;;;;;5015989;28;20029;-77
2022/09/13 00:18:40;;;;;;;5.15;3.85;;;17.60;99.90;;;;;;5032635;28;20056;-77
2022/09/13 00:21:08;;;;;;;4.82;3.53;;;17.60;99.90;;;;;;5023056;28;20030;-77
2022/09/13 00:23:35;;;;;;;6.88;4.07;;;17.70;99.90;;;;;;5025596;28;20453;-77
2022/09/13 00:26:11;;;;;;;5.57;4.20;;;17.60;99.90;;;;;;5015532;28;20068;-77
2022/09/13 00:28:36;;;;;;;6.93;4.13;;;17.60;99.90;;;;;;5029159;28;20091;-76
2022/09/13 00:31:04;;;;;;;4.07;3.40;;;17.70;99.90;;;;;;5014793;28;20033;-77
2022/09/13 00:33:30;;;;;;;5.40;3.30;;;17.70;99.90;;;;;;4993795;28;20859;-77
2022/09/13 00:35:56;;;;;;;6.15;4.47;;;17.70;99.90;;;;;;5012424;28;20041;-77
2022/09/13 00:38:23;;;;;;;6.75;4.47;;;17.60;99.90;;;;;;5034871;28;20044;-77
2022/09/13 00:40:49;;;;;;;6.75;3.95;;;17.70;99.90;;;;;;5000302;28;20025;-77
2022/09/13 00:43:18;;;;;;;5.15;3.83;;;17.60;99.90;;;;;;5038739;28;20524;-77
2022/09/13 00:45:44;;;;;;;6.68;4.47;;;17.60;99.90;;;;;;5031345;28;20041;-77
2022/09/13 00:48:21;;;;;;;6.35;4.55;;;17.50;99.90;;;;;;5028098;28;20018;-77
2022/09/13 00:50:54;;;;;;;5.22;4.40;;;17.50;99.90;;;;;;5031158;28;20030;-77
2022/09/13 00:53:31;;;;;;;6.32;4.40;;;17.50;99.90;;;;;;5037288;28;20037;-77
2022/09/13 00:56:23;;;;;;;8.85;4.88;;;17.40;99.90;;;;;;5032858;28;20060;-77
2022/09/13 00:58:54;;;;;;;6.35;4.65;;;17.40;99.90;;;;;;5012353;28;20111;-77
2022/09/13 01:01:25;;;;;;;7.35;4.75;;;17.40;99.90;;;;;;5030817;28;20025;-77
2022/09/13 01:03:50;;;;;;;5.95;4.45;;;17.40;99.90;;;;;;5024930;28;20025;-77
2022/09/13 01:06:28;;;;;;;8.38;5.13;;;17.40;99.90;;;;;;5035203;28;20496;-77
2022/09/13 01:08:57;;;;;;;6.53;5.03;;;17.30;99.90;;;;;;5027717;28;20025;-77
2022/09/13 01:11:32;;;;;;;6.65;5.15;;;17.30;99.90;;;;;;5029523;28;20180;-77
2022/09/13 01:13:58;;;;;;;6.75;5.07;;;17.30;99.90;;;;;;5031475;28;20036;-77
2022/09/13 01:16:25;;;;;;;8.43;5.88;;;17.30;99.90;;;;;;5012958;28;20029;-77
2022/09/13 01:18:50;;;;;;;9.15;5.13;;;17.30;99.90;;;;;;5031267;28;20634;-77
2022/09/13 01:21:47;;;;;;;8.82;5.18;;;17.30;99.90;;;;;;5033155;28;20021;-76
2022/09/13 01:24:34;;;;;;;6.30;5.20;;;17.30;99.90;;;;;;5009637;28;20035;-77
2022/09/13 01:27:26;;;;;;;9.38;5.20;;;17.20;99.90;;;;;;5029912;28;20030;-77
2022/09/13 01:30:17;;;;;;;8.25;5.57;;;17.20;99.90;;;;;;5027698;28;20025;-77
2022/09/13 01:33:13;;;;;;;7.38;5.13;;;17.20;99.90;;;;;;5036213;28;20071;-77
2022/09/13 01:36:00;;;;;;;10.45;5.30;;;17.20;99.90;;;;;;5010678;28;20063;-77
2022/09/13 01:38:25;;;;;;;8.02;5.50;;;17.20;99.90;;;;;;5011921;28;20033;-77
2022/09/13 01:41:05;;;;;;;6.78;4.68;;;17.20;99.90;;;;;;5013874;28;20029;-77
2022/09/13 01:43:45;;;;;;;7.32;4.88;;;17.20;99.90;;;;;;5031274;28;20029;-76
2022/09/13 01:46:25;;;;;;;8.90;5.65;;;17.20;99.90;;;;;;5014271;28;20056;-77
2022/09/13 01:49:21;;;;;;;7.30;5.30;;;17.20;99.90;;;;;;5027787;28;20030;-77
2022/09/13 01:51:56;;;;;;;7.97;5.55;;;17.10;99.90;;;;;;5024075;28;20021;-77
2022/09/13 01:54:37;;;;;;;8.00;5.63;;;17.10;99.90;;;;;;5009157;28;20493;-79
2022/09/13 01:57:14;;;;;;;6.82;5.22;;;17.10;99.90;;;;;;5025819;28;20057;-78
2022/09/13 02:00:09;;;;;;;7.65;5.18;;;17.20;99.90;;;;;;5027122;28;20033;-77
2022/09/13 02:03:13;;;;;;;8.23;5.72;;;17.10;99.90;;;;;;5026335;28;20026;-77
2022/09/13 02:05:48;;;;;;;7.40;5.57;;;17.10;99.90;;;;;;5026922;28;20029;-77
2022/09/13 02:08:20;;;;;;;8.15;5.50;;;17.10;99.90;;;;;;5031255;28;20033;-77
2022/09/13 02:10:54;;;;;;;8.05;5.93;;;17.10;99.90;;;;;;5007734;28;20037;-76
2022/09/13 02:13:25;;;;;;;7.50;5.85;;;17.10;99.90;;;;;;5024375;28;20033;-77
2022/09/13 02:15:54;;;;;;;;;;;17.10;99.90;;;;;;5011893;28;20052;-77
2022/09/13 02:18:37;;;;;;;7.15;5.38;;;17.10;99.90;;;;;;5026240;28;20307;-76
2022/09/13 02:21:20;;;;;;;7.60;5.93;;;17.10;99.90;;;;;;5010761;28;20025;-76
2022/09/13 02:24:02;;;;;;;8.77;5.93;;;17.00;99.90;;;;;;5009973;28;20029;-77
2022/09/13 02:26:30;;;;;;;8.98;6.00;;;17.00;99.90;;;;;;5025861;28;20144;-76
2022/09/13 02:29:00;;;;;;;6.90;5.50;;;17.00;99.90;;;;;;5005160;28;20033;-76
2022/09/13 02:31:35;;;;;;;8.70;6.17;;;17.00;99.90;;;;;;5024410;28;20515;-76
2022/09/13 02:34:08;;;;;;;7.97;5.72;;;17.00;99.90;;;;;;5014240;28;20029;-75
2022/09/13 02:36:39;;;;;;;8.38;5.88;;;17.00;99.90;;;;;;5022627;28;20026;-76
2022/09/13 02:39:11;;;;;;;7.53;5.90;;;17.10;99.90;;;;;;5025832;28;20029;-77
2022/09/13 02:41:49;;;;;;;8.18;6.00;;;17.00;99.90;;;;;;5022886;28;20120;-76
2022/09/13 02:45:00;;;;;;;7.28;5.57;;;17.00;99.90;;;;;;5026561;28;20033;-76
2022/09/13 02:47:51;;;;;;;6.68;5.63;;;17.10;99.90;;;;;;5021099;28;21443;-77
2022/09/13 02:50:35;;;;;;;12.25;6.35;;;17.10;99.90;;;;;;5013317;28;20367;-77
2022/09/13 02:53:11;;;;;;;8.43;6.20;;;17.10;99.90;;;;;;5025449;28;20018;-76
2022/09/13 02:56:05;;;;;;;8.27;6.00;;;17.00;99.90;;;;;;5031251;28;20431;-77
2022/09/13 02:58:42;;;;;;;8.07;5.97;;;17.10;99.90;;;;;;5024749;28;20030;-76
2022/09/13 03:01:08;;;;;;;9.70;6.28;;;17.00;99.90;;;;;;5024569;28;20033;-77
2022/09/13 03:03:34;;;;;;;8.55;6.00;;;17.00;99.90;;;;;;5004883;28;20361;-77
2022/09/13 03:06:00;;;;;;;8.38;6.32;;;17.00;99.90;;;;;;5025888;28;20032;-77
2022/09/13 03:08:28;;;;;;;7.63;6.18;;;17.10;99.90;;;;;;5009189;28;20111;-77
2022/09/13 03:11:18;;;;;;;10.00;6.13;;;17.10;99.90;;;;;;5026252;28;20034;-77
2022/09/13 03:13:50;;;;;;;8.83;6.07;;;17.00;99.90;;;;;;5029685;28;20025;-77
2022/09/13 03:16:33;;;;;;;12.48;6.85;;;17.00;99.90;;;;;;5035110;28;20024;-77
2022/09/13 03:19:35;;;;;;;9.15;6.80;;;17.10;99.90;;;;;;5027319;28;20029;-77
2022/09/13 03:22:31;;;;;;;10.60;6.82;;;17.00;99.90;;;;;;5009739;28;20033;-77
2022/09/13 03:25:23;;;;;;;8.82;6.85;;;17.10;99.90;;;;;;5029822;28;20057;-77
2022/09/13 03:28:18;;;;;;;9.93;6.88;;;17.10;99.90;;;;;;4988890;28;20037;-77
2022/09/13 03:30:54;;;;;;;10.40;6.47;;;17.10;99.90;;;;;;5037859;28;20038;-77
2022/09/13 03:33:26;;;;;;;10.57;7.38;;;17.00;99.90;;;;;;5015491;28;20034;-77
2022/09/13 03:35:58;;;;;;;11.70;7.82;;;17.00;99.90;;;;;;5027800;28;20516;-77
2022/09/13 03:38:31;;;;;;;10.55;7.13;;;17.00;99.90;;;;;;5028709;28;20505;-77
2022/09/13 03:41:21;;;;;;;8.48;7.00;;;16.90;99.90;;;;;;5017317;28;20334;-77
2022/09/13 03:43:52;;;;;;;9.60;7.43;;;17.00;99.90;;;;;;5029089;28;20057;-77
2022/09/13 03:46:25;;;;;;;9.60;7.88;;;17.00;99.90;;;;;;5017678;28;20021;-77
2022/09/13 03:48:52;;;;;;;10.57;7.95;;;17.00;99.90;;;;;;5009940;28;20586;-76
2022/09/13 03:51:18;;;;;;;12.68;7.95;;;17.00;99.90;;;;;;5007314;28;20389;-77
2022/09/13 03:53:57;;;;;;;13.25;8.27;;;17.00;99.90;;;;;;4994516;28;20037;-77
2022/09/13 03:56:23;;;;;;;12.68;8.00;;;17.00;99.90;;;;;;4997696;28;20030;-77
2022/09/13 03:58:49;;;;;;;11.25;8.20;;;17.00;99.90;;;;;;5029806;28;20041;-76
2022/09/13 04:01:19;;;;;;;11.52;8.40;;;17.00;99.90;;;;;;5015733;28;20032;-77
2022/09/13 04:03:44;;;;;;;12.25;9.52;;;17.00;99.90;;;;;;4998802;28;20061;-77
2022/09/13 04:06:10;;;;;;;15.00;10.77;;;17.10;99.90;;;;;;5028267;28;20057;-76
2022/09/13 04:08:36;;;;;;;15.20;10.32;;;17.10;99.90;;;;;;5007846;28;20033;-77
2022/09/13 04:11:01;;;;;;;18.98;11.75;;;17.00;99.90;;;;;;5008621;28;20029;-77
2022/09/13 04:13:28;;;;;;;16.10;11.00;;;17.00;99.90;;;;;;5028032;28;20169;-77
2022/09/13 04:15:53;;;;;;;17.30;11.85;;;17.10;99.90;;;;;;5021502;28;20071;-77
2022/09/13 04:18:19;;;;;;;16.60;11.60;;;17.00;99.90;;;;;;5032241;28;20057;-77
2022/09/13 04:20:53;;;;;;;18.15;11.70;;;17.10;99.90;;;;;;5011989;28;20160;-77
2022/09/13 04:23:19;;;;;;;17.55;12.32;;;17.00;99.90;;;;;;5016106;28;20045;-77
2022/09/13 04:25:45;;;;;;;16.55;11.10;;;17.00;99.90;;;;;;5026544;28;20044;-76
2022/09/13 04:28:11;;;;;;;16.30;11.93;;;17.00;99.90;;;;;;5011709;28;21546;-77
2022/09/13 04:30:37;;;;;;;15.93;12.00;;;17.00;99.90;;;;;;5026164;28;20421;-77
2022/09/13 04:33:02;;;;;;;17.45;12.27;;;17.00;99.90;;;;;;4993106;28;20076;-77
2022/09/13 04:35:28;;;;;;;17.73;11.90;;;17.00;99.90;;;;;;5033642;28;20292;-77
2022/09/13 04:37:57;;;;;;;18.63;12.43;;;17.00;99.90;;;;;;5008335;28;20041;-77
2022/09/13 04:40:23;;;;;;;17.77;12.80;;;16.90;99.90;;;;;;5029367;28;20029;-77
2022/09/13 04:42:49;;;;;;;18.13;13.15;;;16.90;99.90;;;;;;5002893;28;20618;-77
2022/09/13 04:45:15;;;;;;;16.00;11.63;;;16.90;99.90;;;;;;5023550;28;20017;-76
2022/09/13 04:47:40;;;;;;;17.63;12.55;;;16.90;99.90;;;;;;5015265;28;20129;-77
2022/09/13 04:50:06;;;;;;;16.02;12.63;;;16.80;99.90;;;;;;5031497;28;20608;-77
2022/09/13 04:52:33;;;;;;;17.20;12.13;;;16.90;99.90;;;;;;5013949;28;20517;-77
2022/09/13 04:55:00;;;;;;;17.52;12.60;;;16.80;99.90;;;;;;4998669;28;20061;-77
2022/09/13 04:57:27;;;;;;;18.52;13.35;;;16.80;99.90;;;;;;5032139;28;20037;-77
2022/09/13 04:59:52;;;;;;;22.13;14.13;;;16.80;99.90;;;;;;5024429;28;20036;-76
2022/09/13 05:02:18;;;;;;;19.95;13.20;;;16.70;99.90;;;;;;5016795;28;20030;-77
2022/09/13 05:04:44;;;;;;;19.63;13.98;;;16.70;99.90;;;;;;5010248;28;20026;-76
2022/09/13 05:07:09;;;;;;;22.63;14.07;;;16.80;99.90;;;;;;5005015;28;20052;-77
2022/09/13 05:09:35;;;;;;;25.25;15.02;;;16.70;99.90;;;;;;5016624;28;20082;-77
2022/09/13 05:12:01;;;;;;;22.45;14.98;;;16.70;99.90;;;;;;5011463;28;20039;-76
2022/09/13 05:14:27;;;;;;;21.15;14.63;;;16.70;99.90;;;;;;5005949;28;20077;-77
2022/09/13 05:16:53;;;;;;;19.80;14.85;;;16.70;99.90;;;;;;5027103;28;20048;-76
2022/09/13 05:19:19;;;;;;;22.20;15.10;;;16.70;99.90;;;;;;5029446;28;20037;-76
2022/09/13 05:21:44;;;;;;;23.85;15.80;;;16.70;99.90;;;;;;5029278;28;20172;-76
2022/09/13 05:24:10;;;;;;;22.92;16.38;;;16.70;99.90;;;;;;5016049;28;20038;-76
2022/09/13 05:26:36;;;;;;;22.38;15.38;;;16.70;99.90;;;;;;4995599;28;20524;-77
2022/09/13 05:29:03;;;;;;;22.75;16.38;;;16.70;99.90;;;;;;5009856;28;20029;-76
2022/09/13 05:31:31;;;;;;;26.08;16.23;;;16.70;99.90;;;;;;5030471;28;20052;-76
2022/09/13 05:34:00;;;;;;;28.30;18.98;;;16.70;99.90;;;;;;5026887;28;20030;-76
2022/09/13 05:36:26;;;;;;;25.08;17.40;;;16.70;99.90;;;;;;5018412;28;20049;-76
2022/09/13 05:38:53;;;;;;;28.70;17.75;;;16.70;99.90;;;;;;5020933;28;20037;-76
2022/09/13 05:41:19;;;;;;;25.23;17.52;;;16.80;99.90;;;;;;5021989;28;20029;-77
2022/09/13 05:43:44;;;;;;;25.50;17.33;;;16.70;99.90;;;;;;5003001;28;20401;-76
2022/09/13 05:46:14;;;;;;;24.55;17.23;;;16.70;99.90;;;;;;5003284;28;20025;-76
2022/09/13 05:48:40;;;;;;;27.13;17.88;;;16.80;99.90;;;;;;5017803;28;20072;-73
2022/09/13 05:51:11;;;;;;;26.13;17.23;;;16.90;99.90;;;;;;5018937;28;20562;-77
2022/09/13 05:53:39;;;;;;;25.75;17.08;;;16.90;99.90;;;;;;5016394;28;20075;-76
2022/09/13 05:56:06;;;;;;;23.80;16.65;;;16.90;99.90;;;;;;5015016;28;20128;-77
2022/09/13 05:58:33;;;;;;;22.85;15.57;;;16.90;99.90;;;;;;5015314;28;20045;-77
2022/09/13 06:00:59;;;;;;;25.58;16.80;;;16.90;99.90;;;;;;5022137;28;20037;-77
2022/09/13 06:03:25;;;;;;;23.88;16.55;;;16.90;99.90;;;;;;5027857;28;20052;-78
2022/09/13 06:05:57;;;;;;;26.05;17.77;;;17.00;99.90;;;;;;5007083;28;20029;-76
2022/09/13 06:08:24;;;;;;;25.63;17.33;;;17.00;99.90;;;;;;5019191;28;20029;-77
2022/09/13 06:11:00;;;;;;;29.33;18.20;;;17.00;99.90;;;;;;5030104;28;20037;-77
2022/09/13 06:13:28;;;;;;;29.02;16.88;;;17.00;99.90;;;;;;5029183;28;20048;-77
2022/09/13 06:15:55;;;;;;;26.27;18.50;;;17.10;99.90;;;;;;5011968;28;20034;-77
2022/09/13 06:18:22;;;;;;;28.92;18.10;;;17.10;99.90;;;;;;5022677;28;20071;-77
2022/09/13 06:20:47;;;;;;;25.85;17.10;;;17.10;99.90;;;;;;5010108;28;20082;-77
2022/09/13 06:23:14;;;;;;;27.67;17.50;;;17.10;99.90;;;;;;5007083;28;20425;-77
2022/09/13 06:25:40;;;;;;;25.73;17.60;;;17.10;99.90;;;;;;5013843;28;20021;-77
2022/09/13 06:28:07;;;;;;;24.95;17.55;;;17.10;99.90;;;;;;5008175;28;20060;-76
2022/09/13 06:30:33;;;;;;;24.33;17.25;;;17.10;99.90;;;;;;5025058;28;20083;-77
2022/09/13 06:32:59;;;;;;;21.60;15.63;;;17.20;99.90;;;;;;5008935;28;20029;-77
2022/09/13 06:35:25;;;;;;;27.10;17.70;;;17.20;99.90;;;;;;5010818;28;20029;-76
2022/09/13 06:37:56;;;;;;;26.33;18.90;;;17.20;99.90;;;;;;5005492;28;20044;-76
2022/09/13 06:40:22;;;;;;;22.58;16.95;;;17.20;99.90;;;;;;5011959;28;20030;-77
2022/09/13 06:42:48;;;;;;;26.25;17.45;;;17.20;99.90;;;;;;5035006;28;20025;-77
2022/09/13 06:45:13;;;;;;;24.30;17.90;;;17.20;99.90;;;;;;5004757;28;20044;-77
2022/09/13 06:47:39;;;;;;;28.52;16.75;;;17.30;99.90;;;;;;4991588;28;20036;-77
2022/09/13 06:50:06;;;;;;;25.15;17.17;;;17.40;99.90;;;;;;5028989;28;20028;-77
2022/09/13 06:52:32;;;;;;;28.30;18.67;;;17.50;99.90;;;;;;5025851;28;20501;-77
2022/09/13 06:54:58;;;;;;;24.25;15.80;;;17.50;99.90;;;;;;5009570;28;20033;-77
2022/09/13 06:57:25;;;;;;;25.38;16.98;;;17.50;99.90;;;;;;5029708;28;20024;-77
2022/09/13 06:59:50;;;;;;;27.92;17.00;;;17.50;99.90;;;;;;5011428;28;20026;-77
2022/09/13 07:02:16;;;;;;;23.40;15.82;;;17.50;99.90;;;;;;5008273;28;20158;-77
2022/09/13 07:04:42;;;;;;;28.48;17.35;;;17.60;99.90;;;;;;5029834;28;20056;-77
2022/09/13 07:07:08;;;;;;;25.27;16.58;;;17.60;99.90;;;;;;5010990;28;20026;-77
2022/09/13 07:09:34;;;;;;;25.58;16.08;;;17.70;99.90;;;;;;5021336;28;20038;-77
2022/09/13 07:12:00;;;;;;;23.27;15.10;;;17.70;99.90;;;;;;5011640;28;20029;-77
2022/09/13 07:14:28;;;;;;;20.65;14.73;;;17.70;99.90;;;;;;4992360;28;20036;-77
2022/09/13 07:16:54;;;;;;;25.85;16.30;;;17.70;99.90;;;;;;5004435;28;20070;-77
2022/09/13 07:19:28;;;;;;;23.65;15.55;;;17.80;99.90;;;;;;4995489;28;20080;-77
2022/09/13 07:21:55;;;;;;;22.05;14.85;;;17.80;99.90;;;;;;5007416;28;20462;-77
2022/09/13 07:24:21;;;;;;;24.85;15.25;;;17.80;99.90;;;;;;5024921;28;20033;-77
2022/09/13 07:26:48;;;;;;;21.08;15.23;;;17.90;99.90;;;;;;5021810;28;20075;-77
2022/09/13 07:29:18;;;;;;;24.27;14.25;;;17.90;99.90;;;;;;5027421;28;20026;-76
2022/09/13 07:31:46;;;;;;;26.52;13.48;;;17.90;99.90;;;;;;5009535;28;20037;-76
2022/09/13 07:34:14;;;;;;;18.23;13.32;;;17.90;99.90;;;;;;5032354;28;20040;-75
2022/09/13 07:36:41;;;;;;;22.23;13.43;;;17.90;99.90;;;;;;5031084;28;20021;-76
2022/09/13 07:39:07;;;;;;;23.92;13.18;;;17.90;99.90;;;;;;5017429;28;20160;-76
2022/09/13 07:41:33;;;;;;;17.13;12.18;;;17.90;99.90;;;;;;5028005;28;20037;-76
2022/09/13 07:44:00;;;;;;;18.50;11.63;;;18.00;99.90;;;;;;5029857;28;20059;-78
2022/09/13 07:46:32;;;;;;;17.50;11.43;;;18.10;99.90;;;;;;5027613;28;20061;-77
2022/09/13 07:48:59;;;;;;;17.35;11.07;;;18.10;99.90;;;;;;5017933;28;20354;-77
2022/09/13 07:51:28;;;;;;;19.88;11.23;;;18.20;99.90;;;;;;5008473;28;20104;-77
2022/09/13 07:53:56;;;;;;;19.45;11.57;;;18.20;99.90;;;;;;5024000;28;20029;-77
2022/09/13 07:56:24;;;;;;;21.48;11.75;;;18.20;99.90;;;;;;5034492;28;20028;-77
2022/09/13 07:58:51;;;;;;;17.80;10.40;;;18.20;99.90;;;;;;5027623;28;20075;-77
2022/09/13 08:01:19;;;;;;;20.25;10.93;;;18.20;99.90;;;;;;5030088;28;20022;-76
2022/09/13 08:03:53;;;;;;;18.73;9.32;;;18.20;99.90;;;;;;5029274;28;20076;-77
2022/09/13 08:06:21;;;;;;;17.60;9.90;;;18.30;99.90;;;;;;5029783;28;20052;-77
2022/09/13 08:08:47;;;;;;;16.02;9.40;;;18.40;99.90;;;;;;5000004;28;20021;-77
2022/09/13 08:11:28;;;;;;;15.10;7.38;;;18.40;99.90;;;;;;5027712;28;20148;-77
2022/09/13 08:13:54;;;;;;;10.43;6.47;;;18.40;99.90;;;;;;5013365;28;20059;-77
2022/09/13 08:16:22;;;;;;;14.32;6.10;;;18.50;99.90;;;;;;5033514;28;20154;-76
2022/09/13 08:18:50;;;;;;;9.95;4.50;;;18.60;99.90;;;;;;5011720;28;20128;-75
2022/09/13 08:21:17;;;;;;;11.80;3.95;;;18.60;99.90;;;;;;5012745;28;20045;-76
2022/09/13 08:23:43;;;;;;;12.23;4.20;;;18.50;99.90;;;;;;5015814;28;20124;-77
2022/09/13 08:26:10;;;;;;;10.35;4.07;;;18.50;99.90;;;;;;4995900;28;20394;-76
2022/09/13 08:28:39;;;;;;;9.20;3.30;;;18.40;99.90;;;;;;5030403;28;20044;-77
2022/09/13 08:31:10;;;;;;;16.73;3.50;;;18.40;99.90;;;;;;4996347;28;20064;-77
2022/09/13 08:33:36;;;;;;;10.45;2.70;;;18.40;99.90;;;;;;5028835;28;20028;-77
2022/09/13 08:36:03;;;;;;;9.27;2.85;;;18.40;99.90;;;;;;5013484;28;20120;-77
2022/09/13 08:38:30;;;;;;;8.98;2.35;;;18.40;99.90;;;;;;5019353;28;20033;-77
2022/09/13 08:41:00;;;;;;;9.68;2.45;;;18.50;99.90;;;;;;5020105;28;20033;-77
2022/09/13 08:43:44;;;;;;;8.63;2.10;;;18.40;99.90;;;;;;4995299;28;20484;-77
2022/09/13 08:46:22;;;;;;;11.25;2.30;;;18.50;99.90;;;;;;5031002;28;20612;-77
2022/09/13 08:48:51;;;;;;;8.45;2.20;;;18.50;99.90;;;;;;5013914;28;20035;-78
2022/09/13 08:51:39;;;;;;;13.00;2.53;;;18.60;99.90;;;;;;5013354;28;20057;-78
2022/09/13 08:54:05;;;;;;;5.35;1.65;;;18.60;99.90;;;;;;5032613;28;20037;-78
2022/09/13 08:56:54;;;;;;;7.53;1.92;;;18.60;99.90;;;;;;5035414;28;20034;-79
2022/09/13 08:59:29;;;;;;;8.40;2.08;;;18.70;99.90;;;;;;5032730;28;20029;-77
2022/09/13 09:02:09;;;;;;;5.68;1.67;;;18.70;99.90;;;;;;5027225;28;20037;-77
2022/09/13 09:04:51;;;;;;;6.95;2.13;;;18.80;99.90;;;;;;5029122;28;20045;-76
2022/09/13 09:07:26;;;;;;;8.15;1.70;;;18.90;99.90;;;;;;5029815;28;20071;-76
2022/09/13 09:09:56;;;;;;;11.73;2.08;;;19.00;99.90;;;;;;5042586;28;20030;-77
2022/09/13 09:12:35;;;;;;;7.28;1.55;;;18.90;99.90;;;;;;5038539;28;22234;-77
2022/09/13 09:15:10;;;;;;;4.85;1.27;;;19.00;99.90;;;;;;4996841;28;20029;-77
2022/09/13 09:17:52;;;;;;;8.32;1.88;;;19.00;99.90;;;;;;5012156;28;20406;-77
2022/09/13 09:20:39;;;;;;;11.27;1.83;;;19.10;99.90;;;;;;5030754;28;20033;-77
2022/09/13 09:23:28;;;;;;;10.15;1.55;;;19.10;99.90;;;;;;5025255;28;20017;-77
2022/09/13 09:25:59;;;;;;;7.93;1.83;;;19.00;99.90;;;;;;5017370;28;20013;-77
2022/09/13 09:28:30;;;;;;;;;;;19.00;99.90;;;;;;5030274;28;20045;-77
2022/09/13 09:31:04;;;;;;;6.37;1.40;;;19.00;99.90;;;;;;5001232;28;19909;-76
2022/09/13 09:34:01;;;;;;;8.10;1.50;;;19.00;99.90;;;;;;5035049;28;20796;-77
2022/09/13 09:36:38;;;;;;;7.63;1.58;;;18.90;99.90;;;;;;5015970;28;20044;-77
2022/09/13 09:39:05;;;;;;;7.70;2.28;;;18.90;99.90;;;;;;5031766;28;20041;-77
2022/09/13 09:41:33;;;;;;;8.10;1.20;;;18.90;99.90;;;;;;5025855;28;20045;-77
2022/09/13 09:44:17;;;;;;;5.32;1.00;;;18.90;99.90;;;;;;5035673;28;20030;-77
2022/09/13 09:47:09;;;;;;;8.35;1.38;;;19.00;99.90;;;;;;5032699;28;20037;-78
2022/09/13 09:50:08;;;;;;;5.82;1.10;;;19.10;99.90;;;;;;5011681;28;20037;-77
2022/09/13 09:52:56;;;;;;;9.05;1.25;;;19.20;99.90;;;;;;5026676;28;20049;-77
2022/09/13 09:55:30;;;;;;;8.90;1.20;;;19.30;99.90;;;;;;5000918;28;20055;-77
2022/09/13 09:57:59;;;;;;;8.32;1.20;;;19.40;99.90;;;;;;5031367;28;20025;-77
2022/09/13 10:00:29;;;;;;;11.35;1.52;;;19.40;99.90;;;;;;5015929;28;20052;-78
2022/09/13 10:03:15;;;;;;;15.80;1.90;;;19.50;99.90;;;;;;4993566;28;20113;-77
2022/09/13 10:05:42;;;;;;;5.35;1.33;;;19.50;99.90;;;;;;5016870;28;20032;-77
2022/09/13 10:08:28;;;;;;;5.20;1.15;;;19.40;99.90;;;;;;5014948;28;20033;-77
2022/09/13 10:10:56;;;;;;;8.65;1.42;;;19.40;99.90;;;;;;5009262;28;20037;-77
2022/09/13 10:13:23;;;;;;;4.88;1.00;;;19.20;99.90;;;;;;5015584;28;20021;-77
2022/09/13 10:16:12;;;;;;;9.35;1.10;;;19.20;99.90;;;;;;5023085;28;20060;-77
2022/09/13 10:18:38;;;;;;;7.30;1.23;;;19.10;99.90;;;;;;5010315;28;20056;-76
2022/09/13 10:21:23;;;;;;;7.68;1.30;;;19.10;99.90;;;;;;5036426;28;20040;-77
2022/09/13 10:23:49;;;;;;;5.55;1.17;;;19.10;99.90;;;;;;5015437;28;20079;-77
2022/09/13 10:26:24;;;;;;;5.65;0.90;;;19.10;99.90;;;;;;5011681;28;20017;-77
2022/09/13 10:29:08;;;;;;;4.85;1.23;;;19.30;99.90;;;;;;5036173;28;20022;-77
2022/09/13 10:31:41;;;;;;;7.28;1.40;;;19.30;99.90;;;;;;5034929;28;20033;-76
2022/09/13 10:34:19;;;;;;;8.52;1.20;;;19.50;99.90;;;;;;4998890;28;20026;-77
2022/09/13 10:37:18;;;;;;;5.05;0.90;;;19.50;99.90;;;;;;5010880;28;20036;-75
2022/09/13 10:40:08;;;;;;;5.70;1.00;;;19.50;99.90;;;;;;5027486;28;20029;-77
2022/09/13 10:42:34;;;;;;;10.05;1.48;;;19.70;99.90;;;;;;5030766;28;20087;-76
2022/09/13 10:45:06;;;;;;;5.68;1.00;;;19.60;99.90;;;;;;4994961;28;20054;-79
2022/09/13 10:47:44;;;;;;;12.43;1.55;;;19.50;99.90;;;;;;5036076;28;20033;-78
2022/09/13 10:50:34;;;;;;;7.60;2.13;;;19.50;99.90;;;;;;5034325;28;20098;-79
2022/09/13 10:53:02;;;;;;;10.00;1.42;;;19.60;99.90;;;;;;5028494;28;20122;-77
2022/09/13 10:55:34;;;;;;;6.60;1.30;;;19.60;99.90;;;;;;4995876;28;20072;-76
2022/09/13 10:58:00;;;;;;;10.30;1.40;;;19.60;99.90;;;;;;5010908;28;20037;-77
2022/09/13 11:00:37;;;;;;;7.28;1.50;;;19.90;99.90;;;;;;4999691;28;20702;-75
2022/09/13 11:03:24;;;;;;;8.32;1.48;;;20.30;99.20;;;;;;5006924;28;20047;-76
2022/09/13 11:06:26;;;;;;;5.03;1.40;;;20.40;99.00;;;;;;5028397;28;20083;-76
2022/09/13 11:09:11;;;;;;;7.10;1.42;;;20.90;98.30;;;;;;5023338;28;20038;-77
2022/09/13 11:12:00;;;;;;;3.85;0.98;;;21.00;97.80;;;;;;5011978;28;20036;-78
2022/09/13 11:14:57;;;;;;;10.85;1.75;;;21.10;97.00;;;;;;5013304;28;20030;-77
2022/09/13 11:18:00;;;;;;;15.43;1.80;;;20.70;97.20;;;;;;5009096;28;20032;-77
2022/09/13 11:20:46;;;;;;;6.15;1.30;;;20.40;97.20;;;;;;5028633;28;20125;-76
2022/09/13 11:23:36;;;;;;;4.78;1.00;;;20.20;98.00;;;;;;5030034;28;20040;-75
2022/09/13 11:26:16;;;;;;;6.80;1.43;;;19.90;98.60;;;;;;5028772;28;20104;-75
2022/09/13 11:29:19;;;;;;;7.25;1.52;;;19.80;99.60;;;;;;5029034;28;20351;-74
2022/09/13 11:31:59;;;;;;;6.07;1.60;;;19.70;99.40;;;;;;5020429;28;20064;-74
2022/09/13 11:34:41;;;;;;;7.88;0.95;;;19.80;99.90;;;;;;5033106;28;20113;-74
2022/09/13 11:37:32;;;;;;;4.50;1.10;;;20.20;98.40;;;;;;5029005;28;20116;-74
2022/09/13 11:40:27;;;;;;;6.18;1.20;;;20.90;98.10;;;;;;5030643;28;20041;-74
2022/09/13 11:43:16;;;;;;;6.00;1.10;;;21.20;97.60;;;;;;5030680;28;20025;-73
2022/09/13 11:46:03;;;;;;;4.72;1.40;;;21.30;97.00;;;;;;5014758;28;20048;-74
2022/09/13 11:48:45;;;;;;;5.70;1.40;;;21.00;96.40;;;;;;5028615;28;20018;-71
2022/09/13 11:51:41;;;;;;;6.25;1.63;;;20.80;96.00;;;;;;5033283;28;20025;-77
2022/09/13 11:54:12;;;;;;;5.88;1.10;;;20.80;95.70;;;;;;5025636;28;20121;-76
2022/09/13 11:56:44;;;;;;;3.40;1.33;;;20.80;95.70;;;;;;5030937;28;20037;-76
2022/09/13 11:59:36;;;;;;;6.20;1.20;;;21.00;95.30;;;;;;5030640;28;20025;-76
2022/09/13 12:02:32;;;;;;;5.97;1.20;;;21.00;95.90;;;;;;5025001;28;20053;-76
2022/09/13 12:05:04;;;;;;;7.03;1.35;;;20.80;95.90;;;;;;5014214;28;20092;-76
2022/09/13 12:07:43;;;;;;;6.65;1.10;;;20.60;95.60;;;;;;5016354;28;20098;-76
2022/09/13 12:10:30;;;;;;;7.10;1.33;;;20.40;96.30;;;;;;5028469;28;20041;-74
2022/09/13 12:13:00;;;;;;;9.00;1.73;;;20.40;96.80;;;;;;5030419;28;20180;-76
2022/09/13 12:15:36;;;;;;;7.45;1.40;;;20.40;96.50;;;;;;4999829;28;20111;-76
2022/09/13 12:18:26;;;;;;;7.30;1.30;;;20.50;95.80;;;;;;5010818;28;20017;-76
2022/09/13 12:21:05;;;;;;;11.82;1.58;;;20.30;96.40;;;;;;4995196;28;20409;-76
2022/09/13 12:23:36;;;;;;;8.90;1.33;;;20.20;96.80;;;;;;5028355;28;20033;-75
2022/09/13 12:26:27;;;;;;;3.70;1.10;;;20.60;96.90;;;;;;5028789;28;20146;-77
2022/09/13 12:29:04;;;;;;;9.07;1.25;;;21.30;95.30;;;;;;5010817;28;20087;-76
2022/09/13 12:31:31;;;;;;;9.68;2.70;;;21.60;95.00;;;;;;5029046;28;20033;-77
2022/09/13 12:33:58;;;;;;;5.25;1.23;;;21.50;95.00;;;;;;5030736;28;20034;-76
2022/09/13 12:36:29;;;;;;;6.63;1.30;;;21.20;95.10;;;;;;5031672;28;20037;-76
2022/09/13 12:39:22;;;;;;;11.52;1.60;;;20.90;95.90;;;;;;5024042;28;20036;-76
2022/09/13 12:42:09;;;;;;;10.55;1.80;;;20.80;96.40;;;;;;5028822;28;20636;-77
2022/09/13 12:44:40;;;;;;;5.65;1.50;;;20.60;96.60;;;;;;5031032;28;20533;-76
2022/09/13 12:47:38;;;;;;;8.80;1.55;;;20.50;96.80;;;;;;5014640;28;20037;-76
2022/09/13 12:50:04;;;;;;;6.80;1.38;;;20.50;97.10;;;;;;4984908;28;20041;-77
2022/09/13 12:52:34;;;;;;;10.35;1.30;;;20.50;97.10;;;;;;5015088;28;20029;-76
2022/09/13 12:55:40;;;;;;;5.82;1.42;;;20.40;97.50;;;;;;5012808;28;20044;-76
2022/09/13 12:58:51;;;;;;;16.65;2.22;;;20.20;97.80;;;;;;5034151;28;20028;-75
2022/09/13 13:01:22;;;;;;;9.48;2.70;;;20.10;98.30;;;;;;5009318;28;20575;-76
2022/09/13 13:04:21;;;;;;;8.32;3.60;;;20.10;98.70;;;;;;5007352;28;20381;-75
2022/09/13 13:07:07;;;;;;;6.07;1.42;;;20.10;99.30;;;;;;5017853;28;20042;-75
2022/09/13 13:09:43;;;;;;;7.32;1.88;;;20.20;98.80;;;;;;5028743;28;20021;-76
2022/09/13 13:12:30;;;;;;;6.03;1.90;;;20.20;98.70;;;;;;5027900;28;20044;-76
2022/09/13 13:14:57;;;;;;;7.55;1.60;;;20.20;98.40;;;;;;4978062;28;20064;-76
2022/09/13 13:17:43;;;;;;;5.72;1.40;;;20.20;98.90;;;;;;5012924;28;20025;-76